createdAt,value
2023-05-13T00:02:03.472Z,9.90
2023-05-13T00:04:30.029Z,9.90
2023-05-13T00:06:56.546Z,9.90
2023-05-13T00:09:23.082Z,9.90
2023-05-13T00:11:49.670Z,9.80
2023-05-13T00:14:16.415Z,9.80
2023-05-13T00:16:43.305Z,9.70
2023-05-13T00:19:10.017Z,9.70
2023-05-13T00:21:36.608Z,9.70
2023-05-13T00:24:03.212Z,9.80
2023-05-13T00:26:29.804Z,9.80
2023-05-13T00:28:56.289Z,9.80
2023-05-13T00:31:23.696Z,9.90
2023-05-13T00:33:50.276Z,9.80
2023-05-13T00:36:17.321Z,9.70
2023-05-13T00:38:44.104Z,9.60
2023-05-13T00:41:12.083Z,9.50
2023-05-13T00:43:38.611Z,9.40
2023-05-13T00:46:05.304Z,9.40
2023-05-13T00:48:33.216Z,9.40
2023-05-13T00:50:59.876Z,9.40
2023-05-13T00:53:26.388Z,9.40
2023-05-13T00:55:52.920Z,9.40
2023-05-13T00:58:19.476Z,9.40
2023-05-13T01:01:17.625Z,9.40
2023-05-13T01:03:55.780Z,9.40
2023-05-13T01:06:33.202Z,9.40
2023-05-13T01:09:20.099Z,9.50
2023-05-13T01:11:50.486Z,9.60
2023-05-13T01:14:24.931Z,9.50
2023-05-13T01:17:14.669Z,9.40
2023-05-13T01:19:52.477Z,9.60
2023-05-13T01:22:19.002Z,9.60
2023-05-13T01:24:45.952Z,9.60
2023-05-13T01:27:12.931Z,9.60
2023-05-13T01:29:40.820Z,9.50
2023-05-13T01:32:09.294Z,9.40
2023-05-13T01:34:36.628Z,9.40
2023-05-13T01:37:03.259Z,9.40
2023-05-13T01:39:31.678Z,9.40
2023-05-13T01:41:58.666Z,9.30
2023-05-13T01:44:25.240Z,9.30
2023-05-13T01:46:53.284Z,9.20
2023-05-13T01:49:19.918Z,9.40
2023-05-13T01:51:46.483Z,9.40
2023-05-13T01:54:13.120Z,9.20
2023-05-13T01:56:39.640Z,9.20
2023-05-13T01:59:06.261Z,9.30
2023-05-13T02:01:32.842Z,9.30
2023-05-13T02:04:00.045Z,9.30
2023-05-13T02:06:27.803Z,9.20
2023-05-13T02:08:54.714Z,9.10
2023-05-13T02:11:22.431Z,9.10
2023-05-13T02:13:49.017Z,9.10
2023-05-13T02:16:17.837Z,9.00
2023-05-13T02:18:44.479Z,8.90
2023-05-13T02:21:11.106Z,8.90
2023-05-13T02:23:37.630Z,8.90
2023-05-13T02:26:04.169Z,8.90
2023-05-13T02:28:30.744Z,8.90
2023-05-13T02:30:57.363Z,8.80
2023-05-13T02:33:23.884Z,8.80
2023-05-13T02:35:50.408Z,8.80
2023-05-13T02:38:16.956Z,8.80
2023-05-13T02:40:44.113Z,8.80
2023-05-13T02:43:10.654Z,8.90
2023-05-13T02:45:39.834Z,8.90
2023-05-13T02:48:06.484Z,9.00
2023-05-13T02:50:33.221Z,9.10
2023-05-13T02:52:59.791Z,9.10
2023-05-13T02:55:26.440Z,9.20
2023-05-13T02:57:52.973Z,9.20
2023-05-13T03:00:19.832Z,9.10
2023-05-13T03:02:46.682Z,9.10
2023-05-13T03:05:13.560Z,9.10
2023-05-13T03:07:40.190Z,9.10
2023-05-13T03:10:07.218Z,9.10
2023-05-13T03:12:33.760Z,9.10
2023-05-13T03:15:00.430Z,9.10
2023-05-13T03:17:30.622Z,9.10
2023-05-13T03:19:57.407Z,9.00
2023-05-13T03:22:23.934Z,9.00
2023-05-13T03:24:50.455Z,9.10
2023-05-13T03:27:17.152Z,9.10
2023-05-13T03:29:43.825Z,9.10
2023-05-13T03:32:10.444Z,9.10
2023-05-13T03:34:37.735Z,9.10
2023-05-13T03:37:05.093Z,9.10
2023-05-13T03:39:31.620Z,9.10
2023-05-13T03:41:58.177Z,9.10
2023-05-13T03:44:24.696Z,9.10
2023-05-13T03:46:51.300Z,9.20
2023-05-13T03:49:18.917Z,9.20
2023-05-13T03:51:45.454Z,9.10
2023-05-13T03:54:12.042Z,9.20
2023-05-13T03:56:38.586Z,9.10
2023-05-13T03:59:05.199Z,9.20
2023-05-13T04:01:31.699Z,9.20
2023-05-13T04:03:58.187Z,9.20
2023-05-13T04:06:24.756Z,9.20
2023-05-13T04:08:51.695Z,9.20
2023-05-13T04:11:18.486Z,9.20
2023-05-13T04:13:45.831Z,9.20
2023-05-13T04:16:12.392Z,9.10
2023-05-13T04:18:39.025Z,9.10
2023-05-13T04:21:07.186Z,9.10
2023-05-13T04:23:33.746Z,9.00
2023-05-13T04:26:00.344Z,9.00
2023-05-13T04:28:26.967Z,9.00
2023-05-13T04:30:54.215Z,9.10
2023-05-13T04:33:20.929Z,9.10
2023-05-13T04:35:47.438Z,9.10
2023-05-13T04:38:14.237Z,9.10
2023-05-13T04:40:40.761Z,9.10
2023-05-13T04:43:07.460Z,9.20
2023-05-13T04:45:34.057Z,9.20
2023-05-13T04:48:00.665Z,9.20
2023-05-13T04:50:27.228Z,9.20
2023-05-13T04:52:54.731Z,9.30
2023-05-13T04:55:21.725Z,9.30
2023-05-13T04:57:48.798Z,9.30
2023-05-13T05:00:16.003Z,9.30
2023-05-13T05:02:42.561Z,9.30
2023-05-13T05:05:09.508Z,9.40
2023-05-13T05:07:40.087Z,9.40
2023-05-13T05:10:08.437Z,9.50
2023-05-13T05:12:35.232Z,9.50
2023-05-13T05:15:01.747Z,9.50
2023-05-13T05:17:32.375Z,9.50
2023-05-13T05:19:59.624Z,9.60
2023-05-13T05:22:26.712Z,9.80
2023-05-13T05:24:53.431Z,9.70
2023-05-13T05:27:20.133Z,9.70
2023-05-13T05:29:46.718Z,9.70
2023-05-13T05:32:13.321Z,9.70
2023-05-13T05:34:39.995Z,9.70
2023-05-13T05:37:06.502Z,9.70
2023-05-13T05:39:33.264Z,9.70
2023-05-13T05:41:59.763Z,9.80
2023-05-13T05:44:26.266Z,9.80
2023-05-13T05:46:53.607Z,9.90
2023-05-13T05:49:20.142Z,9.90
2023-05-13T05:51:46.679Z,10.00
2023-05-13T05:54:13.192Z,10.10
2023-05-13T05:56:39.746Z,10.30
2023-05-13T05:59:06.267Z,10.50
2023-05-13T06:01:34.568Z,10.70
2023-05-13T06:04:01.156Z,10.90
2023-05-13T06:06:27.753Z,11.20
2023-05-13T06:08:54.267Z,11.50
2023-05-13T06:11:21.425Z,11.60
2023-05-13T06:13:47.951Z,11.80
2023-05-13T06:16:14.747Z,11.80
2023-05-13T06:18:41.486Z,11.90
2023-05-13T06:21:08.555Z,12.00
2023-05-13T06:23:35.207Z,12.20
2023-05-13T06:26:01.724Z,12.30
2023-05-13T06:28:28.360Z,12.40
2023-05-13T06:30:55.208Z,12.50
2023-05-13T06:33:21.881Z,12.70
2023-05-13T06:35:49.555Z,12.90
2023-05-13T06:38:19.415Z,13.00
2023-05-13T06:40:46.121Z,13.30
2023-05-13T06:43:14.529Z,13.50
2023-05-13T06:45:41.242Z,13.70
2023-05-13T06:48:08.105Z,13.90
2023-05-13T06:50:34.705Z,14.40
2023-05-13T06:53:01.264Z,15.20
2023-05-13T06:55:27.882Z,15.60
2023-05-13T06:57:54.407Z,15.80
2023-05-13T07:00:21.313Z,16.30
2023-05-13T07:02:48.098Z,16.80
2023-05-13T07:05:14.738Z,17.30
2023-05-13T07:07:42.153Z,18.00
2023-05-13T07:10:09.094Z,18.60
2023-05-13T07:12:35.707Z,19.00
2023-05-13T07:15:02.416Z,19.60
2023-05-13T07:17:28.998Z,19.90
2023-05-13T07:19:56.672Z,20.30
2023-05-13T07:22:23.166Z,20.50
2023-05-13T07:24:49.678Z,20.80
2023-05-13T07:27:16.634Z,20.90
2023-05-13T07:29:43.142Z,20.80
2023-05-13T07:32:09.731Z,20.80
2023-05-13T07:34:36.528Z,21.10
2023-05-13T07:37:04.364Z,21.40
2023-05-13T07:39:31.117Z,22.00
2023-05-13T07:41:58.480Z,21.30
2023-05-13T07:44:25.015Z,21.60
2023-05-13T07:46:53.287Z,21.80
2023-05-13T07:49:21.275Z,21.90
2023-05-13T07:51:48.132Z,22.10
2023-05-13T07:54:14.654Z,21.80
2023-05-13T07:56:43.938Z,21.90
2023-05-13T07:59:10.481Z,21.90
2023-05-13T08:01:37.052Z,22.10
2023-05-13T08:04:03.676Z,22.50
2023-05-13T08:06:31.210Z,22.50
2023-05-13T08:08:57.722Z,22.90
2023-05-13T08:11:24.330Z,23.10
2023-05-13T08:13:51.144Z,23.30
2023-05-13T08:16:17.772Z,23.40
2023-05-13T08:18:44.359Z,23.40
2023-05-13T08:21:10.892Z,23.20
2023-05-13T08:23:45.454Z,23.30
2023-05-13T08:26:13.154Z,24.00
2023-05-13T08:28:39.752Z,24.20
2023-05-13T08:31:06.349Z,24.30
2023-05-13T08:33:33.074Z,23.60
2023-05-13T08:36:00.625Z,24.30
2023-05-13T08:38:27.173Z,24.50
2023-05-13T08:40:53.845Z,24.20
2023-05-13T08:43:23.520Z,24.30
2023-05-13T08:45:53.186Z,24.40
2023-05-13T08:48:20.468Z,24.60
2023-05-13T08:50:47.736Z,24.60
2023-05-13T08:53:18.171Z,24.90
2023-05-13T08:55:45.291Z,25.50
2023-05-13T08:58:12.285Z,25.60
2023-05-13T09:00:39.240Z,25.40
2023-05-13T09:03:06.836Z,25.80
2023-05-13T09:05:34.651Z,26.10
2023-05-13T09:08:12.253Z,26.80
2023-05-13T09:10:38.867Z,27.10
2023-05-13T09:13:05.972Z,27.40
2023-05-13T09:15:33.173Z,27.50
2023-05-13T09:18:04.295Z,27.60
2023-05-13T09:20:31.950Z,27.40
2023-05-13T09:23:03.287Z,27.40
2023-05-13T09:25:31.179Z,27.20
2023-05-13T09:28:02.752Z,27.40
2023-05-13T09:30:40.072Z,27.70
2023-05-13T09:33:19.570Z,27.50
2023-05-13T09:35:52.511Z,27.90
2023-05-13T09:38:21.038Z,27.70
2023-05-13T09:41:06.290Z,27.70
2023-05-13T09:43:33.932Z,28.10
2023-05-13T09:46:04.480Z,28.30
2023-05-13T09:48:34.674Z,28.80
2023-05-13T09:51:01.381Z,29.10
2023-05-13T09:53:28.898Z,29.30
2023-05-13T09:55:57.466Z,29.20
2023-05-13T09:58:25.360Z,29.20
2023-05-13T10:00:52.716Z,29.10
2023-05-13T10:03:19.516Z,29.60
2023-05-13T10:05:47.063Z,30.10
2023-05-13T10:08:17.321Z,30.50
2023-05-13T10:10:46.006Z,30.20
2023-05-13T10:13:15.862Z,30.40
2023-05-13T10:15:53.562Z,30.30
2023-05-13T10:18:22.239Z,30.60
2023-05-13T10:20:55.139Z,31.10
2023-05-13T10:23:24.029Z,31.00
2023-05-13T10:25:52.882Z,30.90
2023-05-13T10:28:20.452Z,31.20
2023-05-13T10:30:52.433Z,30.80
2023-05-13T10:33:19.497Z,31.40
2023-05-13T10:36:25.767Z,31.00
2023-05-13T10:39:07.895Z,31.30
2023-05-13T10:41:56.255Z,31.40
2023-05-13T10:44:23.736Z,30.80
2023-05-13T10:46:50.762Z,31.00
2023-05-13T10:49:17.363Z,31.20
2023-05-13T10:51:49.131Z,31.20
2023-05-13T10:54:23.344Z,31.50
2023-05-13T10:56:57.542Z,31.60
2023-05-13T10:59:24.124Z,31.70
2023-05-13T11:01:50.881Z,30.30
2023-05-13T11:04:20.398Z,30.80
2023-05-13T11:06:48.832Z,31.30
2023-05-13T11:09:31.923Z,32.20
2023-05-13T11:12:00.215Z,32.30
2023-05-13T11:14:30.196Z,31.80
2023-05-13T11:17:04.169Z,32.20
2023-05-13T11:19:37.147Z,32.30
2023-05-13T11:22:13.137Z,31.50
2023-05-13T11:24:40.453Z,31.60
2023-05-13T11:27:20.848Z,31.90
2023-05-13T11:29:55.459Z,32.50
2023-05-13T11:33:01.466Z,32.30
2023-05-13T11:35:30.285Z,32.10
2023-05-13T11:38:00.281Z,32.40
2023-05-13T11:40:31.714Z,32.70
2023-05-13T11:42:58.660Z,33.10
2023-05-13T11:45:25.873Z,33.10
2023-05-13T11:47:53.802Z,33.00
2023-05-13T11:50:22.101Z,32.30
2023-05-13T11:52:53.668Z,32.20
2023-05-13T11:55:36.474Z,32.50
2023-05-13T11:58:03.843Z,33.00
2023-05-13T12:00:34.743Z,33.20
2023-05-13T12:03:09.287Z,33.10
2023-05-13T12:05:36.036Z,33.20
2023-05-13T12:08:02.845Z,32.90
2023-05-13T12:10:29.395Z,32.70
2023-05-13T12:12:56.103Z,33.50
2023-05-13T12:15:23.421Z,34.00
2023-05-13T12:17:50.679Z,33.70
2023-05-13T12:20:19.054Z,33.40
2023-05-13T12:22:45.504Z,33.10
2023-05-13T12:25:39.911Z,33.10
2023-05-13T12:28:16.757Z,32.40
2023-05-13T12:31:05.690Z,31.80
2023-05-13T12:33:40.440Z,31.70
2023-05-13T12:36:24.287Z,31.70
2023-05-13T12:39:10.814Z,32.10
2023-05-13T12:41:41.691Z,32.70
2023-05-13T12:44:10.249Z,31.60
2023-05-13T12:46:37.502Z,30.30
2023-05-13T12:49:05.253Z,30.00
2023-05-13T12:51:35.564Z,29.10
2023-05-13T12:54:02.121Z,28.80
2023-05-13T12:56:28.925Z,27.80
2023-05-13T12:58:55.906Z,26.90
2023-05-13T13:01:23.007Z,26.50
2023-05-13T13:03:49.765Z,26.30
2023-05-13T13:06:16.625Z,26.20
2023-05-13T13:08:43.232Z,26.60
2023-05-13T13:11:10.335Z,27.80
2023-05-13T13:13:39.117Z,29.20
2023-05-13T13:16:06.515Z,29.20
2023-05-13T13:18:33.168Z,28.90
2023-05-13T13:20:59.780Z,28.80
2023-05-13T13:23:26.425Z,28.10
2023-05-13T13:25:52.975Z,26.20
2023-05-13T13:28:19.498Z,25.20
2023-05-13T13:30:46.964Z,23.80
2023-05-13T13:33:14.985Z,21.80
2023-05-13T13:35:43.699Z,20.90
2023-05-13T13:38:10.430Z,21.20
2023-05-13T13:40:37.129Z,21.70
2023-05-13T13:43:04.986Z,21.60
2023-05-13T13:45:31.578Z,21.40
2023-05-13T13:47:59.205Z,21.00
2023-05-13T13:50:26.247Z,20.80
2023-05-13T13:52:53.133Z,20.40
2023-05-13T13:55:20.858Z,20.30
2023-05-13T13:57:47.783Z,20.50
2023-05-13T14:00:15.760Z,20.90
2023-05-13T14:02:43.633Z,21.80
2023-05-13T14:05:11.723Z,22.50
2023-05-13T14:07:38.488Z,21.90
2023-05-13T14:10:06.246Z,21.60
2023-05-13T14:12:32.854Z,21.10
2023-05-13T14:14:59.860Z,21.20
2023-05-13T14:17:26.553Z,20.50
2023-05-13T14:19:55.027Z,20.30
2023-05-13T14:22:24.750Z,21.00
2023-05-13T14:24:52.491Z,21.80
2023-05-13T14:27:20.831Z,22.40
2023-05-13T14:29:48.463Z,22.70
2023-05-13T14:32:15.555Z,22.80
2023-05-13T14:34:42.501Z,23.00
2023-05-13T14:37:09.157Z,23.80
2023-05-13T14:39:35.825Z,24.90
2023-05-13T14:42:03.000Z,26.00
2023-05-13T14:44:29.529Z,26.10
2023-05-13T14:46:56.440Z,27.40
2023-05-13T14:49:23.126Z,27.70
2023-05-13T14:51:49.744Z,28.90
2023-05-13T14:54:17.469Z,29.20
2023-05-13T14:56:44.150Z,28.30
2023-05-13T14:59:11.240Z,28.70
2023-05-13T15:01:38.365Z,30.00
2023-05-13T15:04:05.317Z,30.80
2023-05-13T15:06:31.967Z,31.00
2023-05-13T15:08:58.579Z,30.90
2023-05-13T15:11:27.832Z,31.20
2023-05-13T15:13:54.353Z,32.00
2023-05-13T15:16:21.094Z,30.80
2023-05-13T15:18:47.761Z,30.90
2023-05-13T15:21:14.339Z,31.40
2023-05-13T15:23:41.199Z,30.30
2023-05-13T15:26:07.714Z,30.30
2023-05-13T15:28:34.196Z,29.50
2023-05-13T15:31:00.739Z,30.20
2023-05-13T15:33:27.403Z,31.20
2023-05-13T15:35:54.076Z,31.60
2023-05-13T15:38:20.718Z,32.30
2023-05-13T15:40:47.813Z,32.90
2023-05-13T15:43:14.323Z,33.70
2023-05-13T15:45:40.961Z,33.00
2023-05-13T15:48:07.745Z,33.50
2023-05-13T15:50:34.519Z,32.70
2023-05-13T15:53:01.029Z,31.90
2023-05-13T15:55:27.577Z,31.30
2023-05-13T15:57:54.214Z,29.20
2023-05-13T16:00:20.969Z,26.70
2023-05-13T16:02:47.747Z,24.60
2023-05-13T16:05:15.781Z,23.10
2023-05-13T16:07:42.574Z,22.20
2023-05-13T16:10:09.533Z,22.10
2023-05-13T16:12:36.607Z,21.60
2023-05-13T16:15:04.152Z,21.10
2023-05-13T16:17:31.725Z,20.80
2023-05-13T16:19:59.576Z,20.60
2023-05-13T16:22:33.359Z,20.40
2023-05-13T16:25:01.866Z,20.20
2023-05-13T16:27:29.340Z,20.00
2023-05-13T16:29:56.504Z,19.70
2023-05-13T16:32:23.449Z,19.50
2023-05-13T16:34:50.709Z,19.20
2023-05-13T16:37:17.268Z,18.90
2023-05-13T16:39:44.343Z,18.80
2023-05-13T16:42:10.907Z,18.70
2023-05-13T16:44:37.501Z,18.70
2023-05-13T16:47:05.486Z,18.70
2023-05-13T16:49:33.428Z,18.70
2023-05-13T16:52:00.011Z,18.80
2023-05-13T16:54:26.513Z,18.80
2023-05-13T16:56:53.059Z,18.90
2023-05-13T16:59:29.055Z,18.90
2023-05-13T17:01:55.826Z,18.80
2023-05-13T17:04:22.581Z,18.30
2023-05-13T17:06:49.228Z,17.80
2023-05-13T17:09:16.047Z,17.50
2023-05-13T17:11:42.589Z,17.50
2023-05-13T17:14:09.161Z,17.20
2023-05-13T17:16:35.936Z,17.00
2023-05-13T17:19:03.030Z,16.90
2023-05-13T17:21:29.784Z,17.00
2023-05-13T17:23:56.326Z,17.40
2023-05-13T17:26:23.066Z,17.70
2023-05-13T17:28:49.739Z,17.30
2023-05-13T17:31:16.758Z,17.50
2023-05-13T17:33:43.508Z,17.50
2023-05-13T17:36:10.720Z,16.80
2023-05-13T17:38:37.948Z,16.30
2023-05-13T17:41:04.749Z,15.80
2023-05-13T17:43:31.290Z,15.50
2023-05-13T17:45:57.955Z,15.10
2023-05-13T17:48:24.622Z,14.90
2023-05-13T17:50:51.528Z,14.60
2023-05-13T17:53:18.503Z,14.50
2023-05-13T17:55:45.139Z,14.40
2023-05-13T17:58:11.664Z,13.90
2023-05-13T18:00:38.190Z,13.90
2023-05-13T18:03:04.807Z,13.80
2023-05-13T18:05:31.344Z,14.00
2023-05-13T18:07:58.291Z,14.00
2023-05-13T18:10:27.136Z,14.00
2023-05-13T18:12:53.875Z,14.00
2023-05-13T18:15:20.666Z,13.90
2023-05-13T18:17:47.374Z,13.90
2023-05-13T18:20:14.017Z,13.90
2023-05-13T18:22:40.674Z,13.90
2023-05-13T18:25:08.076Z,14.00
2023-05-13T18:27:34.601Z,14.10
2023-05-13T18:30:01.166Z,14.20
2023-05-13T18:32:27.758Z,14.10
2023-05-13T18:34:54.338Z,14.10
2023-05-13T18:37:20.892Z,14.10
2023-05-13T18:39:48.465Z,14.20
2023-05-13T18:42:15.021Z,14.30
2023-05-13T18:44:41.591Z,14.30
2023-05-13T18:47:08.458Z,14.20
2023-05-13T18:49:35.780Z,14.10
2023-05-13T18:52:02.346Z,14.10
2023-05-13T18:54:29.155Z,14.00
2023-05-13T18:56:56.201Z,13.90
2023-05-13T18:59:22.905Z,13.90
2023-05-13T19:01:49.911Z,13.80
2023-05-13T19:04:17.183Z,13.70
2023-05-13T19:06:43.906Z,13.70
2023-05-13T19:09:10.446Z,13.50
2023-05-13T19:11:36.971Z,13.50
2023-05-13T19:14:03.503Z,13.40
2023-05-13T19:16:30.210Z,13.40
2023-05-13T19:18:56.806Z,13.40
2023-05-13T19:21:23.599Z,13.40
2023-05-13T19:23:50.524Z,13.40
2023-05-13T19:26:17.226Z,13.40
2023-05-13T19:28:45.715Z,13.40
2023-05-13T19:31:12.296Z,13.30
2023-05-13T19:33:39.165Z,13.30
2023-05-13T19:36:06.783Z,13.30
2023-05-13T19:38:34.743Z,13.30
2023-05-13T19:41:01.613Z,13.30
2023-05-13T19:43:28.414Z,13.20
2023-05-13T19:45:57.483Z,13.10
2023-05-13T19:48:24.011Z,13.00
2023-05-13T19:50:53.193Z,12.90
2023-05-13T19:53:21.508Z,12.90
2023-05-13T19:55:48.037Z,12.80
2023-05-13T19:58:15.210Z,12.80
2023-05-13T20:00:43.761Z,12.70
2023-05-13T20:03:10.785Z,12.70
2023-05-13T20:05:37.402Z,12.70
2023-05-13T20:08:04.264Z,12.70
2023-05-13T20:10:30.981Z,12.70
2023-05-13T20:12:57.548Z,12.70
2023-05-13T20:15:24.414Z,12.70
2023-05-13T20:17:51.032Z,12.70
2023-05-13T20:20:17.722Z,12.70
2023-05-13T20:22:44.233Z,12.70
2023-05-13T20:25:10.943Z,12.70
2023-05-13T20:27:37.479Z,12.80
2023-05-13T20:30:04.355Z,12.80
2023-05-13T20:32:31.050Z,12.80
2023-05-13T20:34:57.625Z,12.80
2023-05-13T20:37:24.381Z,12.80
2023-05-13T20:39:51.391Z,12.80
2023-05-13T20:42:18.028Z,12.80
2023-05-13T20:44:46.130Z,12.80
2023-05-13T20:47:13.452Z,12.80
2023-05-13T20:49:43.443Z,12.80
2023-05-13T20:52:10.904Z,12.80
2023-05-13T20:54:37.641Z,12.70
2023-05-13T20:57:04.489Z,12.60
2023-05-13T20:59:31.213Z,12.50
2023-05-13T21:01:58.329Z,12.40
2023-05-13T21:04:28.178Z,12.30
2023-05-13T21:06:54.754Z,12.10
2023-05-13T21:09:21.321Z,12.10
2023-05-13T21:11:47.842Z,12.00
2023-05-13T21:14:14.399Z,11.90
2023-05-13T21:16:40.967Z,11.80
2023-05-13T21:19:08.014Z,11.90
2023-05-13T21:21:34.605Z,11.80
2023-05-13T21:24:01.142Z,11.70
2023-05-13T21:26:27.727Z,11.60
2023-05-13T21:28:54.286Z,11.40
2023-05-13T21:31:20.933Z,11.40
2023-05-13T21:33:48.732Z,11.30
2023-05-13T21:36:15.403Z,11.50
2023-05-13T21:38:41.909Z,11.30
2023-05-13T21:41:08.495Z,11.20
2023-05-13T21:43:35.011Z,11.20
2023-05-13T21:46:03.029Z,11.10
2023-05-13T21:48:29.600Z,11.10
2023-05-13T21:50:56.152Z,11.10
2023-05-13T21:53:23.020Z,11.00
2023-05-13T21:55:50.141Z,11.00
2023-05-13T21:58:16.783Z,11.00
2023-05-13T22:00:43.392Z,11.00
2023-05-13T22:03:10.293Z,11.00
2023-05-13T22:05:43.405Z,11.00
2023-05-13T22:08:10.939Z,11.20
2023-05-13T22:10:37.954Z,11.20
2023-05-13T22:13:04.630Z,11.20
2023-05-13T22:15:31.501Z,11.40
2023-05-13T22:17:58.172Z,11.40
2023-05-13T22:20:25.425Z,11.50
2023-05-13T22:22:52.211Z,11.50
2023-05-13T22:25:19.151Z,11.40
2023-05-13T22:27:48.312Z,11.40
2023-05-13T22:30:15.106Z,11.50
2023-05-13T22:32:41.693Z,11.50
2023-05-13T22:35:08.975Z,11.40
2023-05-13T22:37:35.599Z,11.50
2023-05-13T22:40:02.157Z,11.40
2023-05-13T22:42:28.733Z,11.40
2023-05-13T22:44:55.320Z,11.30
2023-05-13T22:47:21.851Z,11.20
2023-05-13T22:49:48.392Z,11.10
2023-05-13T22:52:14.884Z,11.10
2023-05-13T22:54:41.873Z,11.10
2023-05-13T22:57:08.396Z,11.00
2023-05-13T22:59:35.395Z,10.90
2023-05-13T23:02:02.057Z,10.90
2023-05-13T23:04:28.920Z,10.90
2023-05-13T23:06:55.565Z,10.80
2023-05-13T23:09:22.137Z,10.80
2023-05-13T23:11:48.708Z,10.70
2023-05-13T23:14:15.246Z,10.70
2023-05-13T23:16:41.818Z,10.70
2023-05-13T23:19:08.467Z,10.80
2023-05-13T23:21:36.540Z,10.70
2023-05-13T23:24:03.746Z,10.70
2023-05-13T23:26:31.139Z,10.60
2023-05-13T23:28:57.693Z,10.60
2023-05-13T23:31:24.514Z,10.50
2023-05-13T23:33:51.128Z,10.50
2023-05-13T23:36:17.874Z,10.50
2023-05-13T23:38:44.417Z,10.50
2023-05-13T23:41:11.041Z,10.50
2023-05-13T23:43:37.559Z,10.50
2023-05-13T23:46:04.239Z,10.40
2023-05-13T23:48:31.955Z,10.40
2023-05-13T23:50:58.709Z,10.40
2023-05-13T23:53:25.448Z,10.30
2023-05-13T23:55:51.985Z,10.30
2023-05-13T23:58:18.592Z,10.30
